Kapitan Kyuseling — UVLH — position and weather

sailwx.info

Track history (hours):
 
Tides and Currents Weather Stations Pressure Air Temp Water Temp Dewpoint Dewpoint Depression Visibility Wind Speed Wind Dir Waves Ship Positions

Kapitan Kyuseling

Last reported at 2018-Jun-23 13:56 UTC. Time now 2018-Jun-23 14:17 UTC.
Position N 44°42' E 020°57'.

Length 256 m; draft 2.3 m.

Type: Ship. MMSI: 272040300.

Date/timePositionNaut miles runAvg speedWind from/ knotsBaromVisibWave heightAir tempDewpointWater temp
2018-Jun-23 13:56N 44°42' E 020°57'0 0.0
2018-Jun-23 13:26N 44°42' E 020°57'0 0.0
2018-Jun-23 12:56N 44°42' E 020°57'0 0.0
2018-Jun-23 12:26N 44°42' E 020°57'0 0.0
2018-Jun-23 11:24N 44°42' E 020°57'0 0.0
2018-Jun-23 10:43N 44°42' E 020°57'0 0.0
2018-Jun-23 07:19N 44°42' E 020°57'0 0.0
2018-Jun-23 06:33N 44°42' E 020°57'0 0.0
2018-Jun-23 06:13N 44°42' E 020°57'0 0.0
2018-Jun-23 05:50N 44°42' E 020°57'0 0.1
2018-Jun-23 05:30N 44°42' E 020°57'0 0.1
2018-Jun-23 05:00N 44°42' E 020°57'0 0.0
2018-Jun-23 03:23N 44°42' E 020°57'0 0.0
2018-Jun-23 02:49N 44°42' E 020°57'0 0.0
2018-Jun-23 00:14N 44°42' E 020°57'0 0.0
2018-Jun-22 21:24N 44°42' E 020°57'0 0.0
2018-Jun-22 21:00N 44°42' E 020°57'0 0.0
2018-Jun-22 20:30N 44°42' E 020°57'0 0.0
2018-Jun-22 20:00N 44°42' E 020°57'0 0.0
2018-Jun-22 19:30N 44°42' E 020°57'0 0.0
2018-Jun-22 18:54N 44°42' E 020°57'0 0.0
2018-Jun-22 18:30N 44°42' E 020°57'0 0.0
2018-Jun-22 18:00N 44°42' E 020°57'0 0.0
2018-Jun-22 17:30N 44°42' E 020°57'0 0.0
2018-Jun-22 17:00N 44°42' E 020°57'0 0.0
2018-Jun-22 16:30N 44°42' E 020°57'0 0.0
2018-Jun-22 16:00N 44°42' E 020°57'0 0.0
2018-Jun-22 15:30N 44°42' E 020°57'0 0.0
2018-Jun-22 15:00N 44°42' E 020°57'0 0.0
2018-Jun-22 14:30N 44°42' E 020°57'0 0.0
2018-Jun-22 13:50N 44°42' E 020°57'0 0.0
2018-Jun-22 13:29N 44°42' E 020°57'0 0.0
2018-Jun-22 12:59N 44°42' E 020°57'0 0.0
2018-Jun-22 12:26N 44°42' E 020°57'0 0.0
2018-Jun-22 11:59N 44°42' E 020°57'0 0.0
2018-Jun-22 11:26N 44°42' E 020°57'0 0.0
2018-Jun-22 10:59N 44°42' E 020°57'0 0.0
2018-Jun-22 09:59N 44°42' E 020°57'0 0.0
2018-Jun-22 09:17N 44°42' E 020°57'0 0.0
2018-Jun-22 08:59N 44°42' E 020°57'0 0.0
2018-Jun-22 08:29N 44°42' E 020°57'0 0.0
2018-Jun-22 07:59N 44°42' E 020°57'0 0.0
2018-Jun-22 03:07N 44°42' E 020°57'0 0.0
2018-Jun-22 02:53N 44°42' E 020°57'0 0.0
2018-Jun-22 02:11N 44°42' E 020°57'0 0.0
2018-Jun-22 00:35N 44°42' E 020°57'0 0.0
2018-Jun-22 00:19N 44°42' E 020°57'0 0.0
2018-Jun-21 23:58N 44°42' E 020°57'0 0.0
2018-Jun-21 23:28N 44°42' E 020°57'0 0.0
2018-Jun-21 22:58N 44°42' E 020°57'0 0.0
2018-Jun-21 22:28N 44°42' E 020°57'0 0.0
2018-Jun-21 21:58N 44°42' E 020°57'0 0.0
2018-Jun-21 21:28N 44°42' E 020°57'0 0.0
2018-Jun-21 20:58N 44°42' E 020°57'0 0.0
2018-Jun-21 20:28N 44°42' E 020°57'0 0.0
2018-Jun-21 19:58N 44°42' E 020°57'0 0.0
2018-Jun-21 19:25N 44°42' E 020°57'0 0.0
2018-Jun-21 18:58N 44°42' E 020°57'0 0.0
2018-Jun-21 18:28N 44°42' E 020°57'0 0.1
2018-Jun-21 18:01N 44°42' E 020°57'2 4.6
2018-Jun-21 17:31N 44°40' E 020°55'0 0.2
2018-Jun-21 16:57N 44°40' E 020°55'0 0.0
2018-Jun-21 16:27N 44°40' E 020°55'0 0.0
2018-Jun-21 15:57N 44°40' E 020°55'0 0.0
2018-Jun-21 15:30N 44°40' E 020°55'0 0.0
2018-Jun-21 15:00N 44°40' E 020°55'0 0.0
2018-Jun-21 13:57N 44°40' E 020°55'0 0.0
2018-Jun-21 13:27N 44°40' E 020°55'0 0.0
2018-Jun-21 12:57N 44°40' E 020°55'0 0.0
2018-Jun-21 11:45N 44°40' E 020°55'2 0.3
2018-Jun-21 05:29N 44°41' E 020°57'1 0.3
2018-Jun-21 00:32N 44°42' E 020°58'0 1.0
2018-Jun-21 00:29N 44°42' E 020°58'1 1.7
2018-Jun-21 00:00N 44°43' E 020°59'1 2.5
2018-Jun-20 23:30N 44°43' E 021°01'0 0.4
2018-Jun-20 22:54N 44°43' E 021°01'3 1.9
2018-Jun-20 21:11N 44°43' E 021°06'0 2.5
2018-Jun-20 21:00N 44°44' E 021°06'1 2.7
2018-Jun-20 20:30N 44°44' E 021°08'1 2.8
2018-Jun-20 20:00N 44°45' E 021°10'1 2.6
2018-Jun-20 19:31N 44°46' E 021°11'1 2.5
2018-Jun-20 19:00N 44°46' E 021°12'1 2.5
2018-Jun-20 18:30N 44°47' E 021°14'7 2.3
2018-Jun-20 15:32N 44°48' E 021°23'1 2.4
2018-Jun-20 15:02N 44°47' E 021°24'0 3.0
2018-Jun-20 15:00N 44°47' E 021°24'28 1.2
2018-Jun-19 15:39N 44°36' E 022°01'0 2.2
2018-Jun-19 15:30N 44°36' E 022°01'1 2.0
2018-Jun-19 14:51N 44°35' E 022°02'1 2.4
2018-Jun-19 14:26N 44°34' E 022°02'1 2.2
2018-Jun-19 14:01N 44°33' E 022°02'1 2.7
2018-Jun-19 13:31N 44°32' E 022°04'1 2.4
2018-Jun-19 13:01N 44°31' E 022°04'1 2.3
2018-Jun-19 12:31N 44°30' E 022°05'1 2.6
2018-Jun-19 12:01N 44°29' E 022°06'1 2.6
2018-Jun-19 11:31N 44°29' E 022°08'2 2.7
2018-Jun-19 10:55N 44°29' E 022°10'1 2.6
2018-Jun-19 10:31N 44°29' E 022°11'  
Track history (hours):
 
Tides and Currents Weather Stations Pressure Air Temp Water Temp Dewpoint Dewpoint Depression Visibility Wind Speed Wind Dir Waves Ship Positions

Kapitan Kyuseling

Last reported at 2018-Jun-23 13:56 UTC. Time now 2018-Jun-23 14:17 UTC.
Position N 44°42' E 020°57'.

Length 256 m; draft 2.3 m.

Type: Ship. MMSI: 272040300.

Date/timePositionNaut miles runAvg speedWind from/ knotsBaromVisibWave heightAir tempDewpointWater temp
2018-Jun-23 13:56N 44°42' E 020°57'0 0.0
2018-Jun-23 13:26N 44°42' E 020°57'0 0.0
2018-Jun-23 12:56N 44°42' E 020°57'0 0.0
2018-Jun-23 12:26N 44°42' E 020°57'0 0.0
2018-Jun-23 11:24N 44°42' E 020°57'0 0.0
2018-Jun-23 10:43N 44°42' E 020°57'0 0.0
2018-Jun-23 07:19N 44°42' E 020°57'0 0.0
2018-Jun-23 06:33N 44°42' E 020°57'0 0.0
2018-Jun-23 06:13N 44°42' E 020°57'0 0.0
2018-Jun-23 05:50N 44°42' E 020°57'0 0.1
2018-Jun-23 05:30N 44°42' E 020°57'0 0.1
2018-Jun-23 05:00N 44°42' E 020°57'0 0.0
2018-Jun-23 03:23N 44°42' E 020°57'0 0.0
2018-Jun-23 02:49N 44°42' E 020°57'0 0.0
2018-Jun-23 00:14N 44°42' E 020°57'0 0.0
2018-Jun-22 21:24N 44°42' E 020°57'0 0.0
2018-Jun-22 21:00N 44°42' E 020°57'0 0.0
2018-Jun-22 20:30N 44°42' E 020°57'0 0.0
2018-Jun-22 20:00N 44°42' E 020°57'0 0.0
2018-Jun-22 19:30N 44°42' E 020°57'0 0.0
2018-Jun-22 18:54N 44°42' E 020°57'0 0.0
2018-Jun-22 18:30N 44°42' E 020°57'0 0.0
2018-Jun-22 18:00N 44°42' E 020°57'0 0.0
2018-Jun-22 17:30N 44°42' E 020°57'0 0.0
2018-Jun-22 17:00N 44°42' E 020°57'0 0.0
2018-Jun-22 16:30N 44°42' E 020°57'0 0.0
2018-Jun-22 16:00N 44°42' E 020°57'0 0.0
2018-Jun-22 15:30N 44°42' E 020°57'0 0.0
2018-Jun-22 15:00N 44°42' E 020°57'0 0.0
2018-Jun-22 14:30N 44°42' E 020°57'0 0.0
2018-Jun-22 13:50N 44°42' E 020°57'0 0.0
2018-Jun-22 13:29N 44°42' E 020°57'0 0.0
2018-Jun-22 12:59N 44°42' E 020°57'0 0.0
2018-Jun-22 12:26N 44°42' E 020°57'0 0.0
2018-Jun-22 11:59N 44°42' E 020°57'0 0.0
2018-Jun-22 11:26N 44°42' E 020°57'0 0.0
2018-Jun-22 10:59N 44°42' E 020°57'0 0.0
2018-Jun-22 09:59N 44°42' E 020°57'0 0.0
2018-Jun-22 09:17N 44°42' E 020°57'0 0.0
2018-Jun-22 08:59N 44°42' E 020°57'0 0.0
2018-Jun-22 08:29N 44°42' E 020°57'0 0.0
2018-Jun-22 07:59N 44°42' E 020°57'0 0.0
2018-Jun-22 03:07N 44°42' E 020°57'0 0.0
2018-Jun-22 02:53N 44°42' E 020°57'0 0.0
2018-Jun-22 02:11N 44°42' E 020°57'0 0.0
2018-Jun-22 00:35N 44°42' E 020°57'0 0.0
2018-Jun-22 00:19N 44°42' E 020°57'0 0.0
2018-Jun-21 23:58N 44°42' E 020°57'0 0.0
2018-Jun-21 23:28N 44°42' E 020°57'0 0.0
2018-Jun-21 22:58N 44°42' E 020°57'0 0.0
2018-Jun-21 22:28N 44°42' E 020°57'0 0.0
2018-Jun-21 21:58N 44°42' E 020°57'0 0.0
2018-Jun-21 21:28N 44°42' E 020°57'0 0.0
2018-Jun-21 20:58N 44°42' E 020°57'0 0.0
2018-Jun-21 20:28N 44°42' E 020°57'0 0.0
2018-Jun-21 19:58N 44°42' E 020°57'0 0.0
2018-Jun-21 19:25N 44°42' E 020°57'0 0.0
2018-Jun-21 18:58N 44°42' E 020°57'0 0.0
2018-Jun-21 18:28N 44°42' E 020°57'0 0.1
2018-Jun-21 18:01N 44°42' E 020°57'2 4.6
2018-Jun-21 17:31N 44°40' E 020°55'0 0.2
2018-Jun-21 16:57N 44°40' E 020°55'0 0.0
2018-Jun-21 16:27N 44°40' E 020°55'0 0.0
2018-Jun-21 15:57N 44°40' E 020°55'0 0.0
2018-Jun-21 15:30N 44°40' E 020°55'0 0.0
2018-Jun-21 15:00N 44°40' E 020°55'0 0.0
2018-Jun-21 13:57N 44°40' E 020°55'0 0.0
2018-Jun-21 13:27N 44°40' E 020°55'0 0.0
2018-Jun-21 12:57N 44°40' E 020°55'0 0.0
2018-Jun-21 11:45N 44°40' E 020°55'2 0.3
2018-Jun-21 05:29N 44°41' E 020°57'1 0.3
2018-Jun-21 00:32N 44°42' E 020°58'0 1.0
2018-Jun-21 00:29N 44°42' E 020°58'1 1.7
2018-Jun-21 00:00N 44°43' E 020°59'1 2.5
2018-Jun-20 23:30N 44°43' E 021°01'0 0.4
2018-Jun-20 22:54N 44°43' E 021°01'3 1.9
2018-Jun-20 21:11N 44°43' E 021°06'0 2.5
2018-Jun-20 21:00N 44°44' E 021°06'1 2.7
2018-Jun-20 20:30N 44°44' E 021°08'1 2.8
2018-Jun-20 20:00N 44°45' E 021°10'1 2.6
2018-Jun-20 19:31N 44°46' E 021°11'1 2.5
2018-Jun-20 19:00N 44°46' E 021°12'1 2.5
2018-Jun-20 18:30N 44°47' E 021°14'7 2.3
2018-Jun-20 15:32N 44°48' E 021°23'1 2.4
2018-Jun-20 15:02N 44°47' E 021°24'0 3.0
2018-Jun-20 15:00N 44°47' E 021°24'28 1.2
2018-Jun-19 15:39N 44°36' E 022°01'0 2.2
2018-Jun-19 15:30N 44°36' E 022°01'1 2.0
2018-Jun-19 14:51N 44°35' E 022°02'1 2.4
2018-Jun-19 14:26N 44°34' E 022°02'1 2.2
2018-Jun-19 14:01N 44°33' E 022°02'1 2.7
2018-Jun-19 13:31N 44°32' E 022°04'1 2.4
2018-Jun-19 13:01N 44°31' E 022°04'1 2.3
2018-Jun-19 12:31N 44°30' E 022°05'1 2.6
2018-Jun-19 12:01N 44°29' E 022°06'1 2.6
2018-Jun-19 11:31N 44°29' E 022°08'2 2.7
2018-Jun-19 10:55N 44°29' E 022°10'1 2.6
2018-Jun-19 10:31N 44°29' E 022°11'  

Dump ship's entire track history